Time;durP1;ratioP1;P1;durP2;ratioP2;P2;SDS_P1;SDS_P2;PMS_P1;PMS_P2;Temp;Humidity;BMP_temperature;BMP_pressure;BME280_temperature;BME280_humidity;BME280_pressure;Samples;Min_cycle;Max_cycle;Signal;HPM_P1;HPM_P2
2023/10/01 00:01:24;;;;;;;8.70;4.03;;;;;;;14.72;61.34;100478.59;7684138;32;39263;-78
2023/10/01 00:05:40;;;;;;;8.63;4.00;;;;;;;14.98;60.68;100474.59;7683953;32;40790;-78
2023/10/01 00:10:00;;;;;;;7.20;3.85;;;;;;;15.35;59.43;100477.91;7683821;32;38792;-78
2023/10/01 00:14:19;;;;;;;5.95;3.40;;;;;;;15.31;59.34;100487.81;7683762;32;37218;-78
2023/10/01 00:18:43;;;;;;;6.40;3.75;;;;;;;14.78;60.20;100488.44;7683863;32;40213;-79
2023/10/01 00:23:03;;;;;;;7.95;3.95;;;;;;;14.76;59.78;100486.00;7683541;32;39915;-79
2023/10/01 00:27:20;;;;;;;6.32;3.45;;;;;;;15.18;58.34;100483.81;7683330;32;37713;-78
2023/10/01 00:31:37;;;;;;;10.63;3.62;;;;;;;15.40;57.28;100483.34;7683425;32;37095;-78
2023/10/01 00:35:55;;;;;;;8.30;3.50;;;;;;;15.29;57.28;100479.88;7683250;32;39289;-79
2023/10/01 00:40:11;;;;;;;9.48;3.55;;;;;;;15.03;57.34;100488.28;7680537;32;42450;-78
2023/10/01 00:44:28;;;;;;;7.53;3.10;;;;;;;15.25;56.35;100478.81;7656743;32;37881;-78
2023/10/01 00:48:44;;;;;;;6.68;3.75;;;;;;;15.00;56.87;100483.38;7656739;32;37001;-78
2023/10/01 00:53:00;;;;;;;8.43;3.22;;;;;;;15.18;56.34;100479.12;7655299;32;40066;-77
2023/10/01 00:57:17;;;;;;;8.82;3.58;;;;;;;15.05;56.94;100495.44;7656445;32;40136;-78
2023/10/01 01:01:33;;;;;;;5.80;3.35;;;;;;;15.00;56.70;100490.78;7656232;32;38072;-78
2023/10/01 01:10:25;;;;;;;7.80;3.60;;;;;;;14.93;56.72;100484.78;7658177;32;39454;-79
2023/10/01 01:14:44;;;;;;;6.75;3.75;;;;;;;14.87;56.81;100484.00;7659804;32;40102;-78
2023/10/01 01:19:01;;;;;;;6.30;3.60;;;;;;;14.33;59.02;100490.25;7659800;32;38751;-78
2023/10/01 01:23:21;;;;;;;7.55;3.90;;;;;;;14.64;57.80;100483.59;7659735;32;36624;-78
2023/10/01 01:27:40;;;;;;;8.57;3.67;;;;;;;13.95;60.27;100496.09;7659528;32;40036;-79
2023/10/01 01:32:07;;;;;;;5.80;3.78;;;;;;;13.86;61.16;100501.34;7659643;32;39925;-79
2023/10/01 01:36:24;;;;;;;7.47;4.18;;;;;;;13.85;61.05;100501.63;7660151;32;37749;-78
2023/10/01 01:40:42;;;;;;;9.27;3.62;;;;;;;13.86;61.20;100504.06;7659608;32;37071;-79
2023/10/01 01:45:19;;;;;;;10.48;3.87;;;;;;;13.66;61.51;100498.63;7659577;32;38574;-78
2023/10/01 01:49:36;;;;;;;7.90;3.90;;;;;;;13.92;60.69;100496.69;7659323;32;40867;-78
2023/10/01 01:53:53;;;;;;;10.00;3.83;;;;;;;13.59;61.70;100498.06;7659222;32;38043;-79
2023/10/01 01:58:09;;;;;;;8.98;3.75;;;;;;;13.65;61.18;100497.81;7659415;32;37205;-80
2023/10/01 02:02:26;;;;;;;8.10;3.87;;;;;;;13.49;61.46;100501.66;7659327;32;39967;-78
2023/10/01 02:06:45;;;;;;;9.75;4.03;;;;;;;13.34;62.34;100508.75;7659213;32;39946;-79
2023/10/01 02:11:13;;;;;;;13.73;3.92;;;;;;;13.75;60.68;100510.69;7659143;32;37214;-79
2023/10/01 02:15:32;;;;;;;8.20;3.70;;;;;;;13.88;59.91;100514.75;7659818;32;37837;-79
2023/10/01 02:19:48;;;;;;;6.32;3.58;;;;;;;14.00;59.01;100511.72;7658903;32;38348;-78
2023/10/01 02:24:05;;;;;;;7.00;3.90;;;;;;;13.70;59.43;100516.16;7665981;32;40144;-79
2023/10/01 02:28:22;;;;;;;7.30;3.60;;;;;;;13.85;58.89;100513.41;7685200;32;36628;-79
2023/10/01 02:32:49;;;;;;;9.35;3.80;;;;;;;13.78;59.12;100518.34;7685427;32;37116;-78
2023/10/01 02:37:08;;;;;;;17.20;3.80;;;;;;;13.50;59.85;100515.09;7890442;27;38999;-78
2023/10/01 02:41:27;;;;;;;9.50;3.67;;;;;;;13.74;59.11;100528.22;7659021;32;39002;-78
2023/10/01 02:45:44;;;;;;;8.30;3.65;;;;;;;13.79;58.72;100519.97;7658901;32;38266;-78
2023/10/01 02:50:14;;;;;;;8.32;3.55;;;;;;;13.67;58.79;100516.72;7658939;32;36778;-77
2023/10/01 02:54:31;;;;;;;5.93;3.42;;;;;;;13.84;58.21;100516.44;7658690;32;40124;-78
2023/10/01 02:58:50;;;;;;;6.50;3.47;;;;;;;13.90;58.02;100518.87;7658616;32;39955;-78
2023/10/01 03:03:14;;;;;;;6.75;3.58;;;;;;;13.64;58.81;100520.00;7658560;32;38008;-78
2023/10/01 03:07:45;;;;;;;5.93;3.53;;;;;;;13.50;59.12;100519.72;7658679;32;37232;-79
2023/10/01 03:16:53;;;;;;;6.87;3.80;;;;;;;13.41;59.23;100515.88;7684933;32;40827;-78
2023/10/01 03:21:19;;;;;;;8.40;3.80;;;;;;;13.34;59.20;100513.41;7659122;32;38836;-79
2023/10/01 03:25:55;;;;;;;9.40;4.53;;;;;;;13.29;59.38;100516.13;7658449;32;37097;-79
2023/10/01 03:30:21;;;;;;;8.55;4.70;;;;;;;13.02;59.91;100511.72;7658478;32;39962;-79
2023/10/01 03:34:43;;;;;;;11.43;5.80;;;;;;;13.08;59.79;100516.09;7657156;32;40845;-79
2023/10/01 03:39:25;;;;;;;12.55;5.07;;;;;;;13.00;59.86;100507.59;7658075;32;37780;-79
2023/10/01 03:43:37;;;;;;;10.68;5.12;;;;;;;12.99;60.00;100506.78;7658098;32;36821;-79
2023/10/01 03:47:59;;;;;;;8.70;4.70;;;;;;;12.74;60.53;100513.78;7657963;32;40149;-79
2023/10/01 03:52:20;;;;;;;12.20;4.50;;;;;;;12.86;60.23;100515.47;7657990;32;40935;-79
2023/10/01 03:56:37;;;;;;;9.23;4.60;;;;;;;12.73;60.44;100512.16;7657889;32;37969;-79
2023/10/01 04:00:53;;;;;;;7.28;3.97;;;;;;;12.69;60.48;100513.78;7657840;32;37822;-79
2023/10/01 04:05:23;;;;;;;7.95;4.03;;;;;;;12.90;59.83;100517.44;7657866;32;39908;-78
2023/10/01 04:09:50;;;;;;;7.90;4.22;;;;;;;12.69;60.54;100523.91;7657651;32;40816;-79
2023/10/01 04:14:10;;;;;;;11.32;3.75;;;;;;;12.52;60.98;100530.41;7657578;32;37972;-79
2023/10/01 04:18:28;;;;;;;8.13;4.20;;;;;;;12.67;60.23;100524.16;7657521;32;38189;-78
2023/10/01 04:22:47;;;;;;;9.85;4.20;;;;;;;12.58;60.15;100529.34;7657512;32;39363;-79
2023/10/01 04:27:18;;;;;;;11.50;3.78;;;;;;;12.59;60.16;100519.25;7657315;32;39007;-79
2023/10/01 04:31:52;;;;;;;9.18;3.85;;;;;;;12.57;60.15;100524.13;7668756;32;37927;-78
2023/10/01 04:36:16;;;;;;;9.32;3.58;;;;;;;12.61;60.08;100521.69;7683167;32;38222;-79
2023/10/01 04:40:39;;;;;;;;;;;;;;;12.58;60.24;100534.00;7680670;32;39101;-79
2023/10/01 04:44:56;;;;;;;6.62;3.50;;;;;;;12.58;60.26;100542.19;7659377;32;40241;-79
2023/10/01 04:49:31;;;;;;;5.18;3.30;;;;;;;12.53;60.27;100553.13;7660173;32;38879;-77
2023/10/01 04:54:00;;;;;;;7.70;3.60;;;;;;;12.45;60.72;100561.81;7660162;32;37640;-78
2023/10/01 04:58:16;;;;;;;9.75;3.42;;;;;;;12.81;59.52;100553.78;7660219;32;39935;-78
2023/10/01 05:02:36;;;;;;;7.50;3.53;;;;;;;12.62;60.08;100556.97;7660122;32;40113;-78
2023/10/01 05:07:04;;;;;;;8.60;3.70;;;;;;;12.60;60.48;100553.69;7677474;32;38726;-78
2023/10/01 05:11:21;;;;;;;6.70;3.40;;;;;;;12.66;60.67;100551.78;7678298;32;37105;-78
2023/10/01 05:15:37;;;;;;;8.20;3.67;;;;;;;12.69;61.08;100568.50;7659726;32;39376;-78
2023/10/01 05:19:54;;;;;;;8.98;3.30;;;;;;;12.80;61.14;100560.31;7659950;32;40795;-79
2023/10/01 05:24:10;;;;;;;7.00;3.42;;;;;;;12.91;61.06;100567.50;7659701;32;37641;-78
2023/10/01 05:28:34;;;;;;;7.53;3.35;;;;;;;12.88;61.50;100562.56;7659632;32;37808;-78
2023/10/01 05:32:52;;;;;;;6.72;2.95;;;;;;;12.95;61.61;100563.13;7659784;32;39488;-79
2023/10/01 05:37:08;;;;;;;11.18;3.67;;;;;;;13.04;60.96;100561.53;7659338;32;39763;-79
2023/10/01 05:41:32;;;;;;;11.07;3.70;;;;;;;13.05;61.12;100565.87;7659398;32;37929;-79
2023/10/01 05:45:52;;;;;;;7.30;3.03;;;;;;;13.05;61.24;100578.75;7659610;32;37978;-78
2023/10/01 05:50:13;;;;;;;6.95;3.37;;;;;;;13.19;60.76;100577.16;7659554;32;40156;-81
2023/10/01 05:54:32;;;;;;;6.97;3.00;;;;;;;13.31;60.93;100586.00;7658691;32;40736;-81
2023/10/01 05:58:50;;;;;;;9.20;3.30;;;;;;;13.37;60.95;100578.59;7663004;32;38754;-79
2023/10/01 06:03:07;;;;;;;9.93;3.15;;;;;;;13.51;59.88;100576.16;7685683;32;37450;-78
2023/10/01 06:07:24;;;;;;;9.30;3.95;;;;;;;13.63;59.32;100575.91;7685756;32;39276;-80
2023/10/01 06:12:00;;;;;;;8.70;3.70;;;;;;;13.52;60.09;100586.84;7673196;32;39687;-77
2023/10/01 06:16:22;;;;;;;10.93;3.62;;;;;;;13.63;60.37;100590.41;7679703;32;37762;-69
2023/10/01 06:20:41;;;;;;;11.23;3.63;;;;;;;13.87;60.52;100587.13;7665096;32;37178;-81
2023/10/01 06:24:58;;;;;;;11.38;3.40;;;;;;;13.88;59.92;100592.34;7659063;32;39850;-83
2023/10/01 06:29:16;;;;;;;9.73;3.72;;;;;;;13.43;60.26;100587.66;7657837;32;40846;-83
2023/10/01 06:33:36;;;;;;;7.85;2.80;;;;;;;13.95;59.47;100581.09;7658891;32;37997;-84
2023/10/01 06:37:53;;;;;;;11.57;3.40;;;;;;;14.07;58.36;100583.56;7658796;32;37559;-82
2023/10/01 06:42:19;;;;;;;9.50;3.53;;;;;;;13.75;59.06;100598.38;7658806;32;39377;-85
2023/10/01 06:46:37;;;;;;;7.65;3.20;;;;;;;14.07;57.43;100603.59;7658742;32;39929;-83
2023/10/01 06:50:54;;;;;;;9.52;3.25;;;;;;;13.74;58.68;100609.59;7658634;32;38108;-66
2023/10/01 06:55:25;;;;;;;12.00;3.25;;;;;;;14.66;58.30;100604.06;7659396;32;36832;-65
2023/10/01 06:59:44;;;;;;;8.98;2.90;;;;;;;14.33;57.64;100606.31;7658714;32;39408;-85
2023/10/01 07:04:06;;;;;;;7.47;3.00;;;;;;;14.60;55.63;100605.97;7658572;32;39964;-84
2023/10/01 07:08:37;;;;;;;6.93;2.87;;;;;;;15.07;54.71;100608.53;7657531;32;38825;-84
2023/10/01 07:12:58;;;;;;;7.22;2.85;;;;;;;14.35;56.57;100603.25;7676061;32;37681;-85
2023/10/01 07:17:18;;;;;;;8.43;3.37;;;;;;;14.91;55.57;100600.38;7684844;32;39296;-84
2023/10/01 07:21:35;;;;;;;7.53;2.75;;;;;;;15.19;55.25;100598.03;7684846;32;40945;-81
2023/10/01 07:26:00;;;;;;;7.53;2.67;;;;;;;14.84;55.79;100606.16;7684495;32;37926;-82
2023/10/01 07:30:18;;;;;;;4.90;2.55;;;;;;;14.99;54.89;100613.53;7684656;32;37384;-81
2023/10/01 07:34:35;;;;;;;10.43;2.70;;;;;;;14.67;56.57;100627.63;7683250;32;39039;-79
2023/10/01 07:38:56;;;;;;;17.27;3.58;;;;;;;15.28;54.91;100615.59;7684332;32;40023;-81
2023/10/01 07:43:15;;;;;;;7.85;2.72;;;;;;;15.09;54.11;100612.66;7684432;32;38808;-80
2023/10/01 07:47:32;;;;;;;5.68;2.70;;;;;;;15.34;54.08;100613.63;7682770;32;36781;-80
2023/10/01 07:51:51;;;;;;;13.05;2.78;;;;;;;15.51;52.90;100625.06;7677494;32;40172;-86
2023/10/01 07:56:15;;;;;;;7.95;2.62;;;;;;;15.63;53.34;100626.66;7676670;32;40694;-85
2023/10/01 08:00:34;;;;;;;6.22;2.83;;;;;;;16.17;51.59;100614.69;7659509;32;38730;-85
2023/10/01 08:04:57;;;;;;;7.20;2.53;;;;;;;15.72;51.71;100625.75;7657866;32;37852;-81
2023/10/01 08:09:14;;;;;;;10.10;2.87;;;;;;;15.80;52.11;100637.25;7663591;32;39959;-82
2023/10/01 08:13:30;;;;;;;8.65;2.92;;;;;;;15.73;52.13;100638.38;7671662;32;40834;-81
2023/10/01 08:17:47;;;;;;;7.05;2.53;;;;;;;16.46;51.24;100639.44;7683279;32;38039;-81
2023/10/01 08:22:13;;;;;;;8.70;2.70;;;;;;;16.57;50.77;100639.34;7683777;32;37117;-81
2023/10/01 08:26:50;;;;;;;9.77;2.42;;;;;;;16.47;49.60;100638.34;7683665;32;39428;-81
2023/10/01 08:35:56;;;;;;;13.95;2.80;;;;;;;16.48;50.87;100653.72;7674230;32;38636;-83
2023/10/01 08:40:17;;;;;;;8.10;2.95;;;;;;;16.46;51.66;100655.97;7683217;32;37973;-81
2023/10/01 08:45:02;;;;;;;10.48;3.10;;;;;;;16.68;50.01;100646.41;7682324;32;39281;-80
2023/10/01 08:49:24;;;;;;;17.10;3.42;;;;;;;17.16;48.27;100657.44;7660597;32;39591;-80
2023/10/01 08:53:46;;;;;;;11.80;3.63;;;;;;;17.93;46.35;100647.28;7655365;32;38064;-81
2023/10/01 09:02:39;;;;;;;10.38;3.55;;;;;;;17.49;46.46;100646.53;7656519;32;39362;-80
2023/10/01 09:07:04;;;;;;;10.55;3.30;;;;;;;18.15;45.93;100633.66;7656206;32;39642;-83
2023/10/01 09:11:47;;;;;;;7.35;2.92;;;;;;;18.58;45.32;100640.91;7656334;32;38579;-80
2023/10/01 09:16:11;;;;;;;8.25;3.10;;;;;;;18.30;44.58;100637.25;7656015;32;37741;-67
2023/10/01 09:20:40;;;;;;;10.35;2.17;;;;;;;18.94;44.41;100643.00;7656094;32;39404;-80
2023/10/01 09:25:16;;;;;;;6.37;2.30;;;;;;;18.27;44.52;100646.97;7655901;32;39659;-78
2023/10/01 09:29:33;;;;;;;5.05;2.25;;;;;;;18.19;42.99;100633.84;7655185;32;36000;-79
2023/10/01 09:33:49;;;;;;;12.55;2.30;;;;;;;18.37;43.32;100635.75;7659631;32;37137;-82
2023/10/01 09:38:11;;;;;;;7.82;2.35;;;;;;;18.64;44.60;100628.62;7658079;32;40092;-80
2023/10/01 09:42:30;;;;;;;9.77;2.70;;;;;;;18.53;44.29;100621.66;7673830;32;41351;-82
2023/10/01 09:46:49;;;;;;;5.62;2.33;;;;;;;18.99;43.80;100617.19;7684468;32;38706;-81
2023/10/01 09:51:16;;;;;;;14.50;3.20;;;;;;;19.60;40.50;100615.03;7669880;32;35900;-81
2023/10/01 09:55:35;;;;;;;7.70;2.30;;;;;;;19.91;41.38;100619.87;7676700;32;39009;-80
2023/10/01 10:00:14;;;;;;;7.68;2.25;;;;;;;19.68;40.88;100619.81;7680456;32;39974;-81
2023/10/01 10:04:29;;;;;;;7.70;3.35;;;;;;;19.70;38.85;100634.16;7682930;32;36852;-80
2023/10/01 10:08:46;;;;;;;8.75;2.50;;;;;;;20.04;39.83;100627.25;7685673;32;37087;-81
2023/10/01 10:13:45;;;;;;;5.95;2.33;;;;;;;20.06;39.63;100620.28;7684226;32;40051;-81
2023/10/01 10:18:15;;;;;;;7.95;2.50;;;;;;;19.24;40.47;100616.66;7685253;32;40019;-81
2023/10/01 10:22:32;;;;;;;9.20;2.40;;;;;;;20.03;39.76;100617.34;7684248;32;37600;-81
2023/10/01 10:27:00;;;;;;;7.93;2.35;;;;;;;19.35;41.75;100620.03;7685593;32;38073;-81
2023/10/01 10:31:29;;;;;;;8.55;2.33;;;;;;;18.68;43.05;100623.28;7685355;32;39080;-81
2023/10/01 10:35:50;;;;;;;6.18;1.95;;;;;;;19.54;41.20;100627.34;7685045;32;39827;-82
2023/10/01 10:40:13;;;;;;;6.68;2.20;;;;;;;19.43;42.21;100632.28;7684916;32;38193;-81
2023/10/01 10:44:30;;;;;;;5.07;1.90;;;;;;;19.71;40.86;100635.78;7672514;32;37131;-81
2023/10/01 10:48:59;;;;;;;8.32;2.25;;;;;;;20.31;38.83;100615.22;7674903;32;39856;-80
2023/10/01 10:53:25;;;;;;;7.87;2.05;;;;;;;20.81;36.57;100606.66;7657567;32;39268;-81
2023/10/01 10:57:48;;;;;;;12.20;2.37;;;;;;;21.63;35.63;100597.88;7658308;32;38779;-80
2023/10/01 11:02:07;;;;;;;5.82;2.33;;;;;;;22.03;34.33;100607.94;7658606;32;38049;-81
2023/10/01 11:06:29;;;;;;;7.50;2.22;;;;;;;22.85;35.30;100597.56;7658421;32;39331;-81
2023/10/01 11:10:49;;;;;;;4.25;1.60;;;;;;;23.51;32.92;100593.37;7658533;32;39643;-81
2023/10/01 11:15:23;;;;;;;7.22;2.20;;;;;;;23.64;31.04;100585.87;7675974;32;38755;-80
2023/10/01 11:19:40;;;;;;;10.30;1.77;;;;;;;24.32;31.01;100579.19;7682332;32;37908;-80
2023/10/01 11:24:00;;;;;;;6.43;2.15;;;;;;;24.30;30.78;100562.81;7680157;32;39099;-82
2023/10/01 11:28:17;;;;;;;7.53;2.08;;;;;;;24.99;30.83;100559.44;7683193;32;40780;-81
2023/10/01 11:37:29;;;;;;;6.12;1.90;;;;;;;25.32;28.26;100562.09;7679988;32;37872;-81
2023/10/01 11:41:45;;;;;;;4.07;1.60;;;;;;;25.52;27.39;100554.69;7664558;32;39388;-84
2023/10/01 11:46:20;;;;;;;9.38;2.30;;;;;;;25.89;26.59;100540.56;7669366;32;39846;-81
2023/10/01 11:50:50;;;;;;;3.87;1.67;;;;;;;25.15;26.94;100551.16;7657905;32;38546;-82
2023/10/01 11:55:19;;;;;;;6.57;1.70;;;;;;;24.98;26.94;100533.53;7666714;32;37541;-81
2023/10/01 11:59:42;;;;;;;6.20;1.92;;;;;;;24.41;28.44;100528.91;7671799;32;39015;-85
2023/10/01 12:03:59;;;;;;;6.20;1.73;;;;;;;25.06;26.69;100521.44;7666134;32;39992;-86
2023/10/01 12:08:18;;;;;;;5.75;1.70;;;;;;;24.93;25.38;100523.44;7669079;32;37929;-88
2023/10/01 12:12:37;;;;;;;5.90;1.42;;;;;;;24.57;27.04;100521.50;7663324;32;36764;-86
2023/10/01 12:16:56;;;;;;;11.55;1.48;;;;;;;24.70;26.38;100519.53;7670481;32;40047;-84
2023/10/01 12:21:25;;;;;;;4.35;1.80;;;;;;;25.04;26.25;100515.41;7657357;32;40435;-85
2023/10/01 12:30:29;;;;;;;7.43;1.92;;;;;;;25.88;26.20;100499.03;7675333;32;37480;-84
2023/10/01 12:34:46;;;;;;;6.25;1.37;;;;;;;25.51;26.09;100505.63;7683367;32;39562;-84
2023/10/01 12:43:37;;;;;;;6.82;1.80;;;;;;;25.21;26.62;100499.53;7656800;32;38016;-84
2023/10/01 12:47:54;;;;;;;7.00;1.92;;;;;;;24.98;26.57;100500.06;7656784;32;36774;-84
2023/10/01 12:52:14;;;;;;;4.45;1.42;;;;;;;25.18;27.00;100494.66;7656791;32;40184;-83
2023/10/01 12:56:44;;;;;;;9.25;1.80;;;;;;;24.58;26.29;100489.69;7664151;32;40854;-85
2023/10/01 13:01:01;;;;;;;5.75;1.70;;;;;;;24.52;26.66;100504.97;7669479;32;36808;-84
2023/10/01 13:05:21;;;;;;;4.78;1.80;;;;;;;23.95;27.41;100496.34;7669352;32;37110;-83
2023/10/01 13:14:16;;;;;;;8.38;1.70;;;;;;;24.79;26.39;100508.25;7671833;32;40174;-66
2023/10/01 13:18:42;;;;;;;7.05;1.95;;;;;;;24.95;25.75;100491.59;7667308;32;38011;-67
2023/10/01 13:23:07;;;;;;;7.22;2.08;;;;;;;25.71;25.62;100497.38;7660042;32;37056;-66
2023/10/01 13:27:23;;;;;;;5.50;1.67;;;;;;;25.95;26.04;100493.66;7659887;32;39430;-81
2023/10/01 13:31:40;;;;;;;5.45;1.67;;;;;;;26.75;26.38;100486.03;7659757;32;39813;-81
2023/10/01 13:35:57;;;;;;;6.97;1.45;;;;;;;27.27;23.77;100487.56;7659405;32;37961;-82
2023/10/01 13:40:28;;;;;;;8.60;1.80;;;;;;;26.54;24.36;100489.91;7672796;32;37136;-82
2023/10/01 14:13:00;;;;;;;6.75;1.40;;;;;;;24.83;24.99;100472.91;7637059;32;38443;-82
2023/10/01 14:17:16;;;;;;;10.85;2.12;;;;;;;25.10;25.05;100465.75;7668535;32;36926;-82
2023/10/01 14:21:33;;;;;;;4.62;1.20;;;;;;;24.68;25.61;100469.69;7667212;32;41955;-82
2023/10/01 14:25:53;;;;;;;4.25;1.60;;;;;;;23.94;26.49;100466.06;7659092;32;39875;-82
2023/10/01 14:30:25;;;;;;;6.05;1.55;;;;;;;23.53;27.00;100465.84;7658907;32;38781;-80
2023/10/01 14:34:41;;;;;;;9.15;1.52;;;;;;;23.44;26.99;100465.13;7660543;32;37921;-81
2023/10/01 14:39:03;;;;;;;4.87;1.10;;;;;;;23.73;26.89;100468.91;7673054;32;39305;-80
2023/10/01 14:43:19;;;;;;;8.48;1.65;;;;;;;23.05;27.28;100465.28;7669447;32;40921;-81
2023/10/01 14:47:42;;;;;;;7.87;1.50;;;;;;;23.12;28.24;100458.38;7668523;32;38589;-81
2023/10/01 14:52:00;;;;;;;8.80;1.87;;;;;;;23.69;27.77;100454.84;7666107;32;37991;-81
2023/10/01 14:56:20;;;;;;;5.00;1.73;;;;;;;23.92;27.45;100458.06;7683091;32;39080;-81
2023/10/01 15:00:49;;;;;;;3.25;1.20;;;;;;;23.97;27.08;100448.66;7683125;32;40015;-81
2023/10/01 15:05:11;;;;;;;3.72;1.48;;;;;;;24.55;26.99;100454.16;7683012;32;38810;-81
2023/10/01 15:09:31;;;;;;;4.50;1.50;;;;;;;24.74;27.29;100442.38;7685067;32;37065;-81
2023/10/01 15:13:48;;;;;;;7.10;1.98;;;;;;;24.68;27.09;100432.63;7684893;32;39592;-82
2023/10/01 15:18:05;;;;;;;5.70;1.80;;;;;;;24.23;28.58;100431.59;7684772;32;40106;-81
2023/10/01 15:22:22;;;;;;;5.53;1.70;;;;;;;24.13;28.95;100441.25;7684846;32;39310;-81
2023/10/01 15:26:48;;;;;;;7.68;1.77;;;;;;;24.11;28.66;100432.44;7674331;32;272162;-82
2023/10/01 15:31:04;;;;;;;5.65;1.65;;;;;;;24.04;29.45;100443.31;7657945;32;39845;-82
2023/10/01 15:35:22;;;;;;;8.05;1.58;;;;;;;24.10;28.76;100443.94;7657948;32;40972;-82
2023/10/01 15:39:39;;;;;;;5.87;1.23;;;;;;;23.93;29.47;100447.75;7673707;32;38797;-82
2023/10/01 15:43:56;;;;;;;15.93;1.85;;;;;;;24.27;29.40;100457.63;7684498;32;37947;-82
2023/10/01 15:48:17;;;;;;;8.63;1.83;;;;;;;24.46;28.60;100468.19;7667147;32;40102;-82
2023/10/01 15:52:45;;;;;;;7.40;1.80;;;;;;;24.44;29.36;100472.47;7658140;32;39931;-81
2023/10/01 15:57:04;;;;;;;7.82;1.62;;;;;;;23.93;29.69;100470.81;7658473;32;37743;-82
2023/10/01 16:01:23;;;;;;;4.15;1.60;;;;;;;24.02;29.59;100472.69;7657990;32;37530;-82
2023/10/01 16:05:45;;;;;;;5.65;1.55;;;;;;;24.03;30.24;100472.34;7658447;32;40136;-82
2023/10/01 16:10:11;;;;;;;10.07;1.85;;;;;;;23.52;30.99;100466.97;7671435;32;40765;-84
2023/10/01 16:14:27;;;;;;;8.80;1.87;;;;;;;24.17;30.00;100472.81;7675332;32;38836;-85
2023/10/01 16:18:44;;;;;;;5.87;1.95;;;;;;;24.09;30.08;100472.94;7658081;32;37353;-80
2023/10/01 16:23:17;;;;;;;6.85;2.00;;;;;;;23.51;32.43;100476.50;7658432;32;39450;-84
2023/10/01 16:27:33;;;;;;;65.80;35.70;;;;;;;23.15;32.61;100475.19;7657226;32;40306;-84
2023/10/01 16:31:49;;;;;;;20.70;10.43;;;;;;;22.81;32.99;100482.62;7657165;32;37988;-84
2023/10/01 16:36:09;;;;;;;9.60;2.97;;;;;;;22.39;34.55;100488.13;7665977;32;38045;-84
2023/10/01 16:40:28;;;;;;;5.53;1.80;;;;;;;22.10;35.17;100491.63;7667365;32;40069;-86
2023/10/01 16:44:44;;;;;;;5.57;1.90;;;;;;;21.89;35.47;100486.00;7686702;32;39430;-85
2023/10/01 16:49:06;;;;;;;6.32;1.73;;;;;;;21.35;36.52;100505.81;7686469;32;38063;-83
2023/10/01 16:53:33;;;;;;;10.93;2.37;;;;;;;21.24;36.73;100510.06;7671562;32;37872;-84
2023/10/01 16:57:55;;;;;;;4.95;1.77;;;;;;;20.94;37.25;100505.16;7671910;32;40190;-84
2023/10/01 17:02:18;;;;;;;6.78;1.75;;;;;;;20.82;37.65;100514.09;7672223;32;38856;-86
2023/10/01 17:06:38;;;;;;;11.32;1.85;;;;;;;20.69;37.92;100525.31;7676541;32;37904;-87
2023/10/01 17:10:54;;;;;;;7.32;2.08;;;;;;;20.86;37.57;100517.03;7672452;32;36808;-85
2023/10/01 17:15:43;;;;;;;6.78;1.92;;;;;;;20.67;37.96;100524.81;7685289;32;38949;-85
2023/10/01 17:20:13;;;;;;;9.95;1.85;;;;;;;20.34;38.95;100528.75;7683207;32;40788;-86
2023/10/01 17:24:30;;;;;;;6.22;1.65;;;;;;;20.41;38.09;100537.41;7674780;32;37678;-86
2023/10/01 17:28:57;;;;;;;7.85;1.90;;;;;;;20.35;38.40;100540.62;7667686;32;36711;-84
2023/10/01 17:33:14;;;;;;;11.68;2.30;;;;;;;20.12;39.12;100537.12;7671221;32;40161;-85
2023/10/01 17:37:30;;;;;;;13.07;2.62;;;;;;;19.97;39.54;100538.34;7669049;32;39876;-85
2023/10/01 17:41:59;;;;;;;6.30;2.10;;;;;;;19.99;39.55;100533.28;7667637;32;38089;-85
2023/10/01 17:46:16;;;;;;;7.30;2.20;;;;;;;19.70;40.79;100535.37;7670939;32;36892;-85
2023/10/01 17:50:33;;;;;;;7.37;1.75;;;;;;;19.70;40.93;100534.56;7671193;32;39081;-85
2023/10/01 17:54:59;;;;;;;7.22;1.98;;;;;;;19.50;41.72;100535.87;7671136;32;39985;-86
2023/10/01 17:59:26;;;;;;;4.95;1.92;;;;;;;19.49;41.69;100540.59;7672821;32;37645;-84
2023/10/01 18:03:53;;;;;;;3.87;1.80;;;;;;;19.35;42.04;100548.16;7673778;32;37621;-84
2023/10/01 18:08:10;;;;;;;6.75;1.90;;;;;;;19.22;41.82;100541.50;7671423;32;40110;-85
2023/10/01 18:12:29;;;;;;;9.80;2.00;;;;;;;19.20;42.07;100545.75;7676509;32;40503;-84
2023/10/01 18:16:47;;;;;;;6.95;2.40;;;;;;;19.03;42.89;100558.25;7670864;32;38186;-85
2023/10/01 18:21:11;;;;;;;8.25;2.50;;;;;;;18.98;43.86;100561.12;7671449;32;37763;-84
2023/10/01 18:25:31;;;;;;;7.28;2.60;;;;;;;18.81;44.53;100556.19;7670840;32;39440;-82
2023/10/01 18:29:52;;;;;;;5.90;1.90;;;;;;;18.72;45.16;100563.59;7670720;32;40905;-83
2023/10/01 18:34:10;;;;;;;5.10;1.87;;;;;;;18.73;45.22;100568.81;7671312;32;38463;-83
2023/10/01 18:38:31;;;;;;;7.07;1.83;;;;;;;18.54;45.89;100568.06;7671631;32;36112;-83
2023/10/01 18:42:54;;;;;;;6.82;2.10;;;;;;;18.32;46.87;100577.06;7658656;32;39504;-83
2023/10/01 18:47:11;;;;;;;4.05;1.87;;;;;;;18.16;47.33;100574.59;7658884;32;40824;-83
2023/10/01 18:51:28;;;;;;;5.62;2.08;;;;;;;18.05;47.12;100573.13;7658407;32;38777;-83
2023/10/01 18:55:44;;;;;;;7.18;2.20;;;;;;;18.13;46.55;100585.41;7672941;32;37081;-84
2023/10/01 19:00:05;;;;;;;6.82;2.42;;;;;;;18.05;46.45;100573.13;7682889;32;39149;-83
2023/10/01 19:04:24;;;;;;;4.62;1.90;;;;;;;17.88;47.05;100578.38;7658244;32;39670;-84
2023/10/01 19:08:41;;;;;;;6.72;1.92;;;;;;;17.72;47.66;100580.56;7658170;32;38239;-84
2023/10/01 19:13:00;;;;;;;11.95;2.40;;;;;;;17.69;47.89;100579.19;7677298;32;37337;-85
2023/10/01 19:17:16;;;;;;;7.25;2.03;;;;;;;17.79;47.41;100583.75;7679121;32;39545;-83
2023/10/01 19:21:35;;;;;;;4.03;2.03;;;;;;;17.63;47.88;100583.19;7665739;32;40768;-84
2023/10/01 19:25:51;;;;;;;5.97;2.05;;;;;;;17.40;48.78;100587.66;7669088;32;38689;-84
2023/10/01 19:30:10;;;;;;;5.68;2.10;;;;;;;17.36;48.90;100583.84;7668425;32;37934;-83
2023/10/01 19:34:27;;;;;;;9.35;2.35;;;;;;;17.21;49.33;100577.47;7668633;32;40294;-82
2023/10/01 19:38:46;;;;;;;9.40;2.40;;;;;;;17.13;49.74;100586.37;7669925;32;39901;-82
2023/10/01 19:43:04;;;;;;;6.05;1.98;;;;;;;17.19;49.21;100585.19;7668196;32;38146;-85
2023/10/01 19:47:20;;;;;;;8.05;2.47;;;;;;;17.14;49.47;100587.19;7669092;32;36850;-84
2023/10/01 19:51:42;;;;;;;6.00;1.80;;;;;;;16.98;49.89;100583.84;7668588;32;39929;-82
2023/10/01 19:56:04;;;;;;;6.10;2.40;;;;;;;17.28;49.12;100585.34;7668016;32;40083;-84
2023/10/01 20:00:21;;;;;;;6.03;1.90;;;;;;;17.01;49.71;100591.50;7668791;32;37999;-83
2023/10/01 20:04:43;;;;;;;5.75;2.03;;;;;;;16.96;49.81;100594.31;7667148;32;37760;-83
2023/10/01 20:09:00;;;;;;;4.85;2.03;;;;;;;16.79;50.05;100586.50;7680877;32;39468;-83
2023/10/01 20:13:16;;;;;;;6.55;2.20;;;;;;;16.50;50.41;100590.94;7667391;32;40641;-85
2023/10/01 20:17:34;;;;;;;6.28;1.92;;;;;;;16.59;50.11;100593.06;7672653;32;37955;-85
2023/10/01 20:21:56;;;;;;;6.55;2.30;;;;;;;16.50;50.08;100593.69;7668243;32;37120;-85
2023/10/01 20:26:21;;;;;;;6.87;2.42;;;;;;;16.40;50.17;100585.59;7666064;32;39473;-86
2023/10/01 20:30:40;;;;;;;7.75;2.00;;;;;;;16.56;49.58;100582.63;7667302;32;38595;-85
2023/10/01 20:34:58;;;;;;;5.82;2.10;;;;;;;16.41;49.75;100581.72;7667193;32;36840;-81
2023/10/01 20:39:33;;;;;;;4.78;1.92;;;;;;;16.33;50.04;100593.34;7664992;32;37425;-81
2023/10/01 20:43:58;;;;;;;5.35;1.85;;;;;;;16.34;50.11;100586.75;7663517;32;40246;-81
2023/10/01 20:48:36;;;;;;;3.97;1.60;;;;;;;16.22;50.58;100587.13;7668339;32;39926;-80
2023/10/01 20:52:51;;;;;;;10.75;2.40;;;;;;;16.11;50.89;100594.66;7666092;32;38689;-81
2023/10/01 20:57:08;;;;;;;5.68;2.20;;;;;;;16.13;50.99;100591.62;7664821;32;37205;-82
2023/10/01 21:01:37;;;;;;;5.47;2.22;;;;;;;16.03;51.46;100597.22;7668326;32;39543;-83
2023/10/01 21:05:55;;;;;;;6.57;2.10;;;;;;;16.17;51.21;100594.62;7670237;32;39894;-82
2023/10/01 21:10:17;;;;;;;6.10;2.35;;;;;;;15.88;52.16;100589.91;7663633;32;38715;-83
2023/10/01 21:14:36;;;;;;;13.68;2.50;;;;;;;15.80;52.48;100601.53;7670558;32;36742;-82
2023/10/01 21:18:54;;;;;;;5.65;1.98;;;;;;;15.80;52.62;100604.25;7671091;32;40029;-82